Time;durP1;ratioP1;P1;durP2;ratioP2;P2;SDS_P1;SDS_P2;PMS_P1;PMS_P2;Temp;Humidity;BMP_temperature;BMP_pressure;BME280_temperature;BME280_humidity;BME280_pressure;Samples;Min_cycle;Max_cycle;Signal;HPM_P1;HPM_P2
2023/02/22 00:00:48;;;;;;;17.77;12.02;;;9.00;99.90;;;;;;5060981;28;20044;-42
2023/02/22 00:03:33;;;;;;;16.75;12.00;;;9.00;99.90;;;;;;5062011;28;20020;-43
2023/02/22 00:06:03;;;;;;;19.92;13.05;;;9.00;99.90;;;;;;5061477;28;20537;-43
2023/02/22 00:08:31;;;;;;;17.42;12.52;;;9.00;99.90;;;;;;5061076;28;20047;-43
2023/02/22 00:11:07;;;;;;;17.75;12.68;;;9.00;99.90;;;;;;5053045;28;20025;-43
2023/02/22 00:13:33;;;;;;;21.25;15.00;;;9.00;99.90;;;;;;5057814;28;20579;-43
2023/02/22 00:16:00;;;;;;;20.55;14.57;;;9.00;99.90;;;;;;5054060;28;20102;-43
2023/02/22 00:18:27;;;;;;;17.77;13.63;;;8.90;99.90;;;;;;5055230;28;20031;-43
2023/02/22 00:20:59;;;;;;;20.15;14.40;;;9.00;99.90;;;;;;5057165;28;20036;-43
2023/02/22 00:23:29;;;;;;;20.13;13.57;;;8.90;99.90;;;;;;5054014;28;20024;-43
2023/02/22 00:25:56;;;;;;;18.95;13.68;;;8.90;99.90;;;;;;5058142;28;20024;-43
2023/02/22 00:28:24;;;;;;;19.20;13.90;;;8.90;99.90;;;;;;5051445;28;20387;-43
2023/02/22 00:30:51;;;;;;;17.80;12.23;;;8.90;99.90;;;;;;5059205;28;20452;-42
2023/02/22 00:33:17;;;;;;;17.75;12.25;;;8.90;99.90;;;;;;5049979;28;20070;-41
2023/02/22 00:35:46;;;;;;;18.25;13.68;;;8.90;99.90;;;;;;5059179;28;20024;-42
2023/02/22 00:38:15;;;;;;;18.30;12.90;;;8.80;99.90;;;;;;5061182;28;20105;-43
2023/02/22 00:40:40;;;;;;;20.02;13.50;;;8.80;99.90;;;;;;5059779;28;20032;-43
2023/02/22 00:43:06;;;;;;;18.88;13.10;;;8.80;99.90;;;;;;5059922;28;20021;-43
2023/02/22 00:45:34;;;;;;;18.75;13.55;;;8.80;99.90;;;;;;5061453;28;20480;-43
2023/02/22 00:48:00;;;;;;;20.00;14.25;;;8.80;99.90;;;;;;5060894;28;20182;-43
2023/02/22 00:50:28;;;;;;;20.13;13.25;;;8.80;99.90;;;;;;5060598;28;20472;-43
2023/02/22 00:52:55;;;;;;;20.52;14.23;;;8.80;99.90;;;;;;5048547;28;20021;-43
2023/02/22 00:55:26;;;;;;;23.55;15.57;;;8.80;99.90;;;;;;5060446;28;20035;-43
2023/02/22 00:57:54;;;;;;;22.25;15.60;;;8.80;99.90;;;;;;5049626;28;20021;-43
2023/02/22 01:00:23;;;;;;;23.65;15.75;;;8.80;99.90;;;;;;5058652;28;20549;-42
2023/02/22 01:02:49;;;;;;;24.40;16.52;;;8.80;99.90;;;;;;5051614;28;20362;-43
2023/02/22 01:05:17;;;;;;;23.15;16.15;;;8.80;99.90;;;;;;5056688;28;20033;-43
2023/02/22 01:07:48;;;;;;;24.23;16.90;;;8.70;99.90;;;;;;5053819;28;20028;-43
2023/02/22 01:10:16;;;;;;;23.77;16.53;;;8.70;99.90;;;;;;5055233;28;20025;-43
2023/02/22 01:12:42;;;;;;;25.58;17.33;;;8.70;99.90;;;;;;5055032;28;20040;-42
2023/02/22 01:15:10;;;;;;;22.10;15.65;;;8.70;99.90;;;;;;5052822;28;20106;-42
2023/02/22 01:17:37;;;;;;;27.15;17.90;;;8.60;99.90;;;;;;5057335;28;20028;-42
2023/02/22 01:20:11;;;;;;;28.23;18.23;;;8.60;99.90;;;;;;5050215;28;20550;-43
2023/02/22 01:22:46;;;;;;;26.27;17.10;;;8.70;99.90;;;;;;5058057;28;20115;-43
2023/02/22 01:25:16;;;;;;;24.08;16.67;;;8.70;99.90;;;;;;5049791;28;20761;-42
2023/02/22 01:27:42;;;;;;;27.77;18.27;;;8.70;99.90;;;;;;5059860;28;20032;-42
2023/02/22 01:30:11;;;;;;;30.40;19.00;;;8.70;99.90;;;;;;5060316;28;20021;-42
2023/02/22 01:32:41;;;;;;;29.35;19.30;;;8.70;99.90;;;;;;5058865;28;20024;-43
2023/02/22 01:35:10;;;;;;;29.17;18.85;;;8.60;99.90;;;;;;5060374;28;20103;-43
2023/02/22 01:37:35;;;;;;;27.50;18.50;;;8.60;99.90;;;;;;5060999;28;20020;-43
2023/02/22 01:40:03;;;;;;;29.75;19.33;;;8.70;99.90;;;;;;5059904;28;20371;-43
2023/02/22 01:42:29;;;;;;;28.10;19.00;;;8.60;99.90;;;;;;5060485;28;20028;-43
2023/02/22 01:45:29;;;;;;;27.88;18.95;;;8.60;99.90;;;;;;5059403;28;20028;-43
2023/02/22 01:48:08;;;;;;;30.80;19.77;;;8.60;99.90;;;;;;5059063;28;20067;-42
2023/02/22 01:50:59;;;;;;;31.73;19.38;;;8.50;99.90;;;;;;5060176;28;20040;-43
2023/02/22 01:53:33;;;;;;;28.30;18.23;;;8.50;99.90;;;;;;5048447;28;20044;-43
2023/02/22 01:56:02;;;;;;;28.92;18.90;;;8.50;99.90;;;;;;5059387;28;20031;-43
2023/02/22 01:58:32;;;;;;;28.30;17.77;;;8.50;99.90;;;;;;5060362;28;20047;-43
2023/02/22 02:00:57;;;;;;;26.60;17.15;;;8.60;99.90;;;;;;5058734;28;20036;-44
2023/02/22 02:03:28;;;;;;;27.48;17.90;;;8.60;99.90;;;;;;5060298;28;20035;-43
2023/02/22 02:06:01;;;;;;;26.70;16.98;;;8.60;99.90;;;;;;5058791;28;20024;-43
2023/02/22 02:08:48;;;;;;;27.48;17.42;;;8.60;99.90;;;;;;5059404;28;20073;-43
2023/02/22 02:11:16;;;;;;;30.08;18.15;;;8.50;99.90;;;;;;5059679;28;20085;-43
2023/02/22 02:13:42;;;;;;;25.20;16.13;;;8.50;99.90;;;;;;5059724;28;20029;-43
2023/02/22 02:16:08;;;;;;;27.60;18.33;;;8.50;99.90;;;;;;5059192;28;20814;-43
2023/02/22 02:18:34;;;;;;;29.35;17.90;;;8.40;99.90;;;;;;5059457;28;20052;-43
2023/02/22 02:21:37;;;;;;;27.98;17.25;;;8.40;99.90;;;;;;5058239;28;20111;-42
2023/02/22 02:24:40;;;;;;;30.38;17.73;;;8.40;99.90;;;;;;5060093;28;20086;-43
2023/02/22 02:27:25;;;;;;;30.05;16.83;;;8.30;99.90;;;;;;5059528;28;20066;-43
2023/02/22 02:30:24;;;;;;;27.92;17.35;;;8.30;99.90;;;;;;5058783;28;20549;-43
2023/02/22 02:32:57;;;;;;;31.85;18.55;;;8.30;99.90;;;;;;5051801;28;20495;-43
2023/02/22 02:35:25;;;;;;;28.67;18.00;;;8.20;99.90;;;;;;5059117;28;20108;-43
2023/02/22 02:38:03;;;;;;;24.73;16.00;;;8.20;99.90;;;;;;5058798;28;20032;-42
2023/02/22 02:40:29;;;;;;;27.00;16.67;;;8.20;99.90;;;;;;5059813;28;20063;-43
2023/02/22 02:43:12;;;;;;;26.80;16.20;;;8.10;99.90;;;;;;5059401;28;20480;-43
2023/02/22 02:45:55;;;;;;;23.60;14.38;;;8.10;99.90;;;;;;5059001;28;20051;-43
2023/02/22 02:48:25;;;;;;;25.67;15.68;;;8.10;99.90;;;;;;5059618;28;20036;-43
2023/02/22 02:50:52;;;;;;;28.08;15.93;;;8.10;99.90;;;;;;5058473;28;20078;-43
2023/02/22 02:53:24;;;;;;;25.98;15.95;;;8.10;99.90;;;;;;5059408;28;20059;-43
2023/02/22 02:55:50;;;;;;;28.75;16.77;;;8.10;99.90;;;;;;5058814;28;20012;-42
2023/02/22 02:58:21;;;;;;;30.73;17.50;;;8.10;99.90;;;;;;5058866;28;20589;-43
2023/02/22 03:00:50;;;;;;;29.83;16.80;;;8.10;99.90;;;;;;5059267;28;20158;-43
2023/02/22 03:03:32;;;;;;;27.92;15.77;;;8.10;99.90;;;;;;5047967;28;20464;-42
2023/02/22 03:06:19;;;;;;;30.50;17.65;;;8.20;99.90;;;;;;5047211;28;20045;-42
2023/02/22 03:08:54;;;;;;;25.52;15.20;;;8.20;99.90;;;;;;5053584;28;20200;-42
2023/02/22 03:11:28;;;;;;;28.00;16.30;;;8.20;99.90;;;;;;5062732;28;20024;-45
2023/02/22 03:14:10;;;;;;;28.77;17.13;;;8.10;99.90;;;;;;5062706;28;20042;-43
2023/02/22 03:17:00;;;;;;;24.40;14.83;;;8.20;99.90;;;;;;5062402;28;20119;-42
2023/02/22 03:19:35;;;;;;;24.48;14.90;;;8.10;99.90;;;;;;5062078;28;20309;-43
2023/02/22 03:22:25;;;;;;;25.95;14.93;;;8.10;99.90;;;;;;5062254;28;20039;-44
2023/02/22 03:25:06;;;;;;;26.75;15.80;;;8.10;99.90;;;;;;5046059;28;20017;-43
2023/02/22 03:27:53;;;;;;;28.05;16.83;;;8.20;99.90;;;;;;5049582;28;20086;-44
2023/02/22 03:30:30;;;;;;;26.90;15.82;;;8.20;99.90;;;;;;5045153;28;20029;-42
2023/02/22 03:33:07;;;;;;;29.58;16.48;;;8.10;99.90;;;;;;5050410;28;20789;-43
2023/02/22 03:35:37;;;;;;;28.15;16.75;;;8.20;99.90;;;;;;5043925;28;20082;-43
2023/02/22 03:38:08;;;;;;;28.85;16.17;;;8.20;99.90;;;;;;5051920;28;20070;-42
2023/02/22 03:40:38;;;;;;;29.63;16.55;;;8.10;99.90;;;;;;5045072;28;20037;-43
2023/02/22 03:43:07;;;;;;;28.90;16.90;;;8.10;99.90;;;;;;5050003;28;20025;-43
2023/02/22 03:45:35;;;;;;;28.48;16.70;;;8.10;99.90;;;;;;5046289;28;20020;-42
2023/02/22 03:48:33;;;;;;;29.52;17.35;;;8.10;99.90;;;;;;5047636;28;20028;-43
2023/02/22 03:51:03;;;;;;;26.52;15.80;;;8.10;99.90;;;;;;5061848;28;20143;-43
2023/02/22 03:53:31;;;;;;;27.45;15.32;;;8.10;99.90;;;;;;5061440;28;20039;-42
2023/02/22 03:55:59;;;;;;;29.85;17.33;;;8.10;99.90;;;;;;5061548;28;20028;-43
2023/02/22 03:58:30;;;;;;;27.40;16.05;;;8.10;99.90;;;;;;5061742;28;20069;-42
2023/02/22 04:00:55;;;;;;;27.88;15.25;;;8.10;99.90;;;;;;5061024;28;20477;-42
2023/02/22 04:03:22;;;;;;;29.00;17.45;;;8.10;99.90;;;;;;5062051;28;20065;-42
2023/02/22 04:05:48;;;;;;;30.65;18.17;;;8.10;99.90;;;;;;5061951;28;20047;-42
2023/02/22 04:08:14;;;;;;;29.67;17.25;;;8.10;99.90;;;;;;5061161;28;20505;-43
2023/02/22 04:10:40;;;;;;;29.05;16.88;;;8.10;99.90;;;;;;5060683;28;20074;-42
2023/02/22 04:13:05;;;;;;;31.45;17.70;;;8.00;99.90;;;;;;5061934;28;20759;-42
2023/02/22 04:15:32;;;;;;;30.77;17.38;;;8.10;99.90;;;;;;5061178;28;20032;-43
2023/02/22 04:17:58;;;;;;;31.67;18.67;;;8.00;99.90;;;;;;5061267;28;20852;-42
2023/02/22 04:20:24;;;;;;;34.65;19.92;;;8.10;99.90;;;;;;5061036;28;20119;-42
2023/02/22 04:22:54;;;;;;;37.50;21.50;;;8.00;99.90;;;;;;5060199;28;20032;-42
2023/02/22 04:25:20;;;;;;;35.35;20.13;;;8.00;99.90;;;;;;5061224;28;20028;-42
2023/02/22 04:27:46;;;;;;;34.95;19.75;;;8.00;99.90;;;;;;5060144;28;20029;-42
2023/02/22 04:30:12;;;;;;;34.80;19.05;;;7.90;99.90;;;;;;5060805;28;20024;-43
2023/02/22 04:32:38;;;;;;;32.83;18.77;;;7.90;99.90;;;;;;5041164;28;20524;-42
2023/02/22 04:35:05;;;;;;;32.95;19.45;;;8.00;99.90;;;;;;5054415;28;20021;-42
2023/02/22 04:37:33;;;;;;;34.08;18.90;;;7.90;99.90;;;;;;5061378;28;20028;-42
2023/02/22 04:39:59;;;;;;;32.58;18.52;;;7.90;99.90;;;;;;5060548;28;20041;-43
2023/02/22 04:42:25;;;;;;;31.90;18.17;;;7.80;99.90;;;;;;5060603;28;20032;-42
2023/02/22 04:44:51;;;;;;;33.63;19.10;;;7.80;99.90;;;;;;5060042;28;20793;-43
2023/02/22 04:47:16;;;;;;;33.50;19.65;;;7.80;99.90;;;;;;5060775;28;20119;-43
2023/02/22 04:49:42;;;;;;;34.08;19.50;;;7.80;99.90;;;;;;5059973;28;20144;-43
2023/02/22 04:52:07;;;;;;;33.20;19.63;;;7.80;99.90;;;;;;5060943;28;20119;-42
2023/02/22 04:54:33;;;;;;;33.88;19.50;;;7.80;99.90;;;;;;5061104;28;20032;-43
2023/02/22 04:56:58;;;;;;;35.05;19.77;;;7.70;99.90;;;;;;5060083;28;20494;-43
2023/02/22 04:59:24;;;;;;;37.63;20.08;;;7.70;99.90;;;;;;5060038;28;20070;-43
2023/02/22 05:01:50;;;;;;;36.00;20.20;;;7.70;99.90;;;;;;5060661;28;20039;-43
2023/02/22 05:04:15;;;;;;;34.45;19.02;;;7.70;99.90;;;;;;5060552;28;20037;-43
2023/02/22 05:06:41;;;;;;;38.85;20.02;;;7.60;99.90;;;;;;5060410;28;20082;-43
2023/02/22 05:09:06;;;;;;;37.28;20.73;;;7.60;99.90;;;;;;5061439;28;20159;-44
2023/02/22 05:11:32;;;;;;;35.05;19.48;;;7.60;99.90;;;;;;5060319;28;20103;-43
2023/02/22 05:13:58;;;;;;;32.55;18.80;;;7.60;99.90;;;;;;5060525;28;20543;-43
2023/02/22 05:16:27;;;;;;;35.22;19.00;;;7.60;99.90;;;;;;5061004;28;20534;-43
2023/02/22 05:18:52;;;;;;;31.75;17.05;;;7.60;99.90;;;;;;5059847;28;20028;-43
2023/02/22 05:21:18;;;;;;;34.25;18.45;;;7.60;99.90;;;;;;5060219;28;20040;-42
2023/02/22 05:23:43;;;;;;;31.42;17.38;;;7.50;99.90;;;;;;5060320;28;20028;-43
2023/02/22 05:26:09;;;;;;;33.92;19.08;;;7.50;99.90;;;;;;5059453;28;20417;-43
2023/02/22 05:28:34;;;;;;;38.70;21.50;;;7.40;99.90;;;;;;5060628;28;20831;-44
2023/02/22 05:31:00;;;;;;;37.45;20.42;;;7.40;99.90;;;;;;5059809;28;20032;-43
2023/02/22 05:33:26;;;;;;;37.00;20.10;;;7.40;99.90;;;;;;5059986;28;20020;-42
2023/02/22 05:35:51;;;;;;;37.90;20.60;;;7.40;99.90;;;;;;5059732;28;20020;-43
2023/02/22 05:38:19;;;;;;;40.70;22.60;;;7.50;99.90;;;;;;5060287;28;20025;-43
2023/02/22 05:40:45;;;;;;;40.60;22.10;;;7.40;99.90;;;;;;5059170;28;20064;-43
2023/02/22 05:43:11;;;;;;;44.28;24.92;;;7.40;99.90;;;;;;5059807;28;20104;-43
2023/02/22 05:45:37;;;;;;;45.47;24.35;;;7.40;99.90;;;;;;5059523;28;20027;-43
2023/02/22 05:48:02;;;;;;;44.88;24.20;;;7.40;99.90;;;;;;5059755;28;20017;-43
2023/02/22 05:50:28;;;;;;;45.92;24.65;;;7.40;99.90;;;;;;5060086;28;20165;-43
2023/02/22 05:52:54;;;;;;;38.65;21.65;;;7.40;99.90;;;;;;5060039;28;20018;-45
2023/02/22 05:55:22;;;;;;;39.92;22.42;;;7.40;99.90;;;;;;5059929;28;20060;-43
2023/02/22 05:57:48;;;;;;;39.83;21.83;;;7.40;99.90;;;;;;5059328;28;20029;-43
2023/02/22 06:00:18;;;;;;;40.58;21.58;;;7.40;99.90;;;;;;5059411;28;20033;-43
2023/02/22 06:02:50;;;;;;;41.92;22.08;;;7.40;99.90;;;;;;5059131;28;20027;-42
2023/02/22 06:05:19;;;;;;;42.05;23.15;;;7.40;99.90;;;;;;5060471;28;20069;-43
2023/02/22 06:07:44;;;;;;;45.40;25.95;;;7.40;99.90;;;;;;5052831;28;20097;-43
2023/02/22 06:10:10;;;;;;;46.13;25.10;;;7.40;99.90;;;;;;5053314;28;20029;-43
2023/02/22 06:12:35;;;;;;;47.38;24.48;;;7.40;99.90;;;;;;5055689;28;20094;-43
2023/02/22 06:15:01;;;;;;;40.55;22.40;;;7.40;99.90;;;;;;5050442;28;20040;-43
2023/02/22 06:17:26;;;;;;;45.33;23.15;;;7.40;99.90;;;;;;5058661;28;20021;-42
2023/02/22 06:19:52;;;;;;;45.65;24.38;;;7.40;99.90;;;;;;5048670;28;20535;-43
2023/02/22 06:22:18;;;;;;;46.08;24.33;;;7.40;99.90;;;;;;5057992;28;20040;-42
2023/02/22 06:24:44;;;;;;;45.53;25.20;;;7.40;99.90;;;;;;5047678;28;20812;-42
2023/02/22 06:27:09;;;;;;;43.70;23.70;;;7.40;99.90;;;;;;5059931;28;20032;-43
2023/02/22 06:29:35;;;;;;;46.58;25.60;;;7.40;99.90;;;;;;5047311;28;20873;-44
2023/02/22 06:32:01;;;;;;;48.67;24.80;;;7.40;99.90;;;;;;5059512;28;20089;-43
2023/02/22 06:34:26;;;;;;;51.15;25.50;;;7.40;99.90;;;;;;5047010;28;20035;-44
2023/02/22 06:36:54;;;;;;;48.75;24.75;;;7.40;99.90;;;;;;5071200;28;20043;-43
2023/02/22 06:39:20;;;;;;;49.25;24.60;;;7.40;99.90;;;;;;5066505;28;20048;-43
2023/02/22 06:41:46;;;;;;;45.55;23.52;;;7.30;99.90;;;;;;5062950;28;20112;-42
2023/02/22 06:44:13;;;;;;;50.10;25.48;;;7.30;99.90;;;;;;5062852;28;20024;-43
2023/02/22 06:46:45;;;;;;;47.08;24.85;;;7.30;99.90;;;;;;5062948;28;20112;-43
2023/02/22 06:49:12;;;;;;;50.13;25.67;;;7.30;99.90;;;;;;5062182;28;20452;-42
2023/02/22 06:51:38;;;;;;;45.45;23.60;;;7.30;99.90;;;;;;5062093;28;20036;-43
2023/02/22 06:54:04;;;;;;;45.47;23.33;;;7.30;99.90;;;;;;5063169;28;20023;-42
2023/02/22 06:56:30;;;;;;;43.28;22.83;;;7.30;99.90;;;;;;5062899;28;20178;-43
2023/02/22 06:58:55;;;;;;;41.63;22.08;;;7.30;99.90;;;;;;5062455;28;20374;-43
2023/02/22 07:01:21;;;;;;;37.20;20.27;;;7.30;99.90;;;;;;5062631;28;20043;-42
2023/02/22 07:03:48;;;;;;;40.67;21.48;;;7.30;99.90;;;;;;5062154;28;20047;-43
2023/02/22 07:06:14;;;;;;;44.75;22.00;;;7.30;99.90;;;;;;5062404;28;20039;-44
2023/02/22 07:08:40;;;;;;;41.92;22.77;;;7.30;99.90;;;;;;5060970;28;20025;-43
2023/02/22 07:11:05;;;;;;;46.50;22.23;;;7.30;99.90;;;;;;5062708;28;20028;-43
2023/02/22 07:13:31;;;;;;;49.80;23.45;;;7.30;99.90;;;;;;5063077;28;20025;-43
2023/02/22 07:15:56;;;;;;;46.60;24.92;;;7.40;99.90;;;;;;5060559;28;20116;-42
2023/02/22 07:18:23;;;;;;;51.85;24.10;;;7.30;99.90;;;;;;5061139;28;20108;-43
2023/02/22 07:20:49;;;;;;;48.17;24.58;;;7.30;99.90;;;;;;5061405;28;20045;-44
2023/02/22 07:23:15;;;;;;;40.53;22.75;;;7.30;99.90;;;;;;5062454;28;20393;-43
2023/02/22 07:25:41;;;;;;;38.97;20.05;;;7.20;99.90;;;;;;5061003;28;20035;-43
2023/02/22 07:28:06;;;;;;;37.40;21.08;;;7.30;99.90;;;;;;5062116;28;20078;-42
2023/02/22 07:30:32;;;;;;;39.60;21.60;;;7.30;99.90;;;;;;5061644;28;20020;-42
2023/02/22 07:33:04;;;;;;;40.33;20.75;;;7.30;99.90;;;;;;5061702;28;20140;-43
2023/02/22 07:35:35;;;;;;;34.30;18.65;;;7.30;99.90;;;;;;5061810;28;20019;-43
2023/02/22 07:38:01;;;;;;;42.05;19.38;;;7.40;99.90;;;;;;5061683;28;20094;-42
2023/02/22 07:40:27;;;;;;;40.90;20.83;;;7.40;99.90;;;;;;5062062;28;20063;-43
2023/02/22 07:43:03;;;;;;;42.95;20.85;;;7.40;99.90;;;;;;5061834;28;20809;-43
2023/02/22 07:45:33;;;;;;;41.22;19.98;;;7.40;99.90;;;;;;5061256;28;20029;-43
2023/02/22 07:48:01;;;;;;;42.53;21.52;;;7.40;99.90;;;;;;5061321;28;20126;-43
2023/02/22 07:50:31;;;;;;;41.70;21.75;;;7.50;99.90;;;;;;5061059;28;20073;-43
2023/02/22 07:52:58;;;;;;;37.42;20.23;;;7.50;99.90;;;;;;5061248;28;20064;-43
2023/02/22 07:55:27;;;;;;;40.38;21.20;;;7.50;99.90;;;;;;5061793;28;20032;-43
2023/02/22 07:57:56;;;;;;;40.60;20.27;;;7.60;99.90;;;;;;5061051;28;20052;-43
2023/02/22 08:00:29;;;;;;;40.65;20.85;;;7.60;99.90;;;;;;5060976;28;20090;-43
2023/02/22 08:02:56;;;;;;;38.90;20.45;;;7.60;99.90;;;;;;5057634;28;20097;-43
2023/02/22 08:05:24;;;;;;;41.22;21.23;;;7.60;99.90;;;;;;5061037;28;20021;-43
2023/02/22 08:07:50;;;;;;;38.60;19.77;;;7.70;99.90;;;;;;5060285;28;20036;-43
2023/02/22 08:10:19;;;;;;;42.75;22.10;;;7.70;99.90;;;;;;5061223;28;20028;-43
2023/02/22 08:12:44;;;;;;;42.92;22.58;;;7.70;99.90;;;;;;5060619;28;20037;-43
2023/02/22 08:15:16;;;;;;;50.55;25.08;;;7.80;99.90;;;;;;5060904;28;20094;-44
2023/02/22 08:17:41;;;;;;;53.95;25.13;;;7.70;99.90;;;;;;5049202;28;20025;-44
2023/02/22 08:20:07;;;;;;;45.13;22.55;;;7.70;99.90;;;;;;5059916;28;20031;-43
2023/02/22 08:22:33;;;;;;;44.22;22.67;;;7.70;99.90;;;;;;5052276;28;20028;-43
2023/02/22 08:24:58;;;;;;;44.55;22.73;;;7.80;99.90;;;;;;5057712;28;20540;-43
2023/02/22 08:27:28;;;;;;;42.65;21.77;;;7.80;99.90;;;;;;5054350;28;20057;-44
2023/02/22 08:29:54;;;;;;;48.00;23.40;;;7.80;99.90;;;;;;5055528;28;20025;-42
2023/02/22 08:32:20;;;;;;;47.88;23.77;;;7.90;99.90;;;;;;5056661;28;20295;-42
2023/02/22 08:34:46;;;;;;;48.42;24.15;;;7.90;99.90;;;;;;5052351;28;20013;-43
2023/02/22 08:37:12;;;;;;;46.15;22.55;;;7.90;99.90;;;;;;5059959;28;20024;-43
2023/02/22 08:39:37;;;;;;;45.05;23.08;;;7.90;99.90;;;;;;5049490;28;20468;-44
2023/02/22 08:42:03;;;;;;;48.05;22.50;;;7.90;99.90;;;;;;5059408;28;20044;-42
2023/02/22 08:44:29;;;;;;;42.83;20.88;;;8.00;99.90;;;;;;5049986;28;20030;-42
2023/02/22 08:46:54;;;;;;;40.70;20.40;;;8.10;99.90;;;;;;5060325;28;20103;-43
2023/02/22 08:49:20;;;;;;;42.25;20.88;;;8.10;99.90;;;;;;5048019;28;20041;-43
2023/02/22 08:51:46;;;;;;;39.83;19.77;;;8.20;99.90;;;;;;5060904;28;20039;-43
2023/02/22 08:54:12;;;;;;;41.38;20.05;;;8.20;99.90;;;;;;5047771;28;20021;-42
2023/02/22 08:56:37;;;;;;;42.58;20.80;;;8.20;99.90;;;;;;5059940;28;20035;-44
2023/02/22 08:59:03;;;;;;;42.83;21.25;;;8.30;99.90;;;;;;5049940;28;20104;-43
2023/02/22 09:01:33;;;;;;;42.80;21.02;;;8.40;99.90;;;;;;5058721;28;20051;-43
2023/02/22 09:03:59;;;;;;;40.08;20.77;;;8.40;99.90;;;;;;5058419;28;20098;-44
2023/02/22 09:06:24;;;;;;;43.78;21.33;;;8.40;99.90;;;;;;5060329;28;20028;-43
2023/02/22 09:08:50;;;;;;;37.47;18.77;;;8.50;99.90;;;;;;5058660;28;20027;-44
2023/02/22 09:11:17;;;;;;;39.63;20.02;;;8.50;99.90;;;;;;5060329;28;20052;-43
2023/02/22 09:13:43;;;;;;;38.97;19.95;;;8.60;99.90;;;;;;5059756;28;20012;-43
2023/02/22 09:16:08;;;;;;;44.30;21.70;;;8.60;99.90;;;;;;5060187;28;20033;-44
2023/02/22 09:18:34;;;;;;;42.33;20.70;;;8.60;99.90;;;;;;5057646;28;20727;-43
2023/02/22 09:21:00;;;;;;;40.47;20.42;;;8.70;99.90;;;;;;5049792;28;20119;-43
2023/02/22 09:23:26;;;;;;;41.97;20.58;;;8.70;99.90;;;;;;5058628;28;20071;-44
2023/02/22 09:25:51;;;;;;;42.70;21.35;;;8.80;99.90;;;;;;5049009;28;20078;-44
2023/02/22 09:28:17;;;;;;;41.28;20.45;;;8.80;99.90;;;;;;5060220;28;20032;-44
2023/02/22 09:30:43;;;;;;;43.28;21.23;;;8.80;99.90;;;;;;5045707;28;20107;-44
2023/02/22 09:33:19;;;;;;;40.47;21.08;;;8.90;99.90;;;;;;5060695;28;20758;-44
2023/02/22 09:35:46;;;;;;;47.65;22.17;;;9.00;99.90;;;;;;5047248;28;20024;-43
2023/02/22 09:38:17;;;;;;;44.28;23.08;;;9.00;99.90;;;;;;5060152;28;20119;-43
2023/02/22 09:41:15;;;;;;;45.95;21.98;;;9.10;99.90;;;;;;5046159;28;20021;-43
2023/02/22 09:44:14;;;;;;;41.70;21.05;;;9.20;99.90;;;;;;5059561;28;20848;-44
2023/02/22 09:46:44;;;;;;;40.17;19.35;;;9.30;99.90;;;;;;5047869;28;20476;-43
2023/02/22 09:49:46;;;;;;;37.92;19.48;;;9.40;99.90;;;;;;5058059;28;20786;-43
2023/02/22 09:52:26;;;;;;;41.42;22.05;;;9.50;99.90;;;;;;5050094;28;20483;-43
2023/02/22 09:55:33;;;;;;;40.72;21.17;;;9.50;99.90;;;;;;5059259;28;20090;-43
2023/02/22 09:58:02;;;;;;;40.55;20.80;;;9.50;99.90;;;;;;5031680;28;20040;-43
2023/02/22 10:00:35;;;;;;;42.53;20.13;;;9.50;99.90;;;;;;5059375;28;20111;-43
2023/02/22 10:03:20;;;;;;;42.00;21.73;;;9.50;99.90;;;;;;5059921;28;20032;-44
2023/02/22 10:06:03;;;;;;;49.40;23.65;;;9.50;99.90;;;;;;5058757;28;20123;-43
2023/02/22 10:08:33;;;;;;;46.58;23.10;;;9.50;99.90;;;;;;5059566;28;20036;-44
2023/02/22 10:11:42;;;;;;;42.88;21.65;;;9.50;99.90;;;;;;5058382;28;20016;-43
2023/02/22 10:14:50;;;;;;;40.25;21.67;;;9.50;99.90;;;;;;5015114;28;20044;-44
2023/02/22 10:17:39;;;;;;;42.67;21.65;;;9.60;99.90;;;;;;5063314;28;20154;-44
2023/02/22 10:20:33;;;;;;;40.03;21.05;;;9.70;99.90;;;;;;5063761;28;20037;-44
2023/02/22 10:23:03;;;;;;;36.95;19.45;;;9.70;99.90;;;;;;5051152;28;20072;-43
2023/02/22 10:25:33;;;;;;;37.08;20.33;;;9.80;99.90;;;;;;5063266;28;20063;-44
2023/02/22 10:28:08;;;;;;;40.70;19.88;;;9.80;99.90;;;;;;5062785;28;20805;-44
2023/02/22 10:30:55;;;;;;;41.45;21.52;;;9.80;99.90;;;;;;5063337;28;20514;-44
2023/02/22 10:33:25;;;;;;;44.05;21.48;;;9.90;99.90;;;;;;5045143;28;20056;-43
2023/02/22 10:35:52;;;;;;;43.80;24.23;;;9.90;99.90;;;;;;5063403;28;20035;-43
2023/02/22 10:38:38;;;;;;;45.53;24.23;;;9.90;99.90;;;;;;5063587;28;20545;-44
2023/02/22 10:41:09;;;;;;;47.17;24.98;;;9.90;99.90;;;;;;5062697;28;20036;-44
2023/02/22 10:43:40;;;;;;;45.40;24.98;;;9.90;99.90;;;;;;5063393;28;20062;-43
2023/02/22 10:46:08;;;;;;;46.00;25.85;;;9.90;99.90;;;;;;5062978;28;20033;-43
2023/02/22 10:48:37;;;;;;;45.17;25.27;;;9.90;99.90;;;;;;5061901;28;20037;-44
2023/02/22 10:51:04;;;;;;;44.08;24.55;;;9.90;99.90;;;;;;5061843;28;20049;-44
2023/02/22 10:53:31;;;;;;;41.88;24.10;;;9.90;99.90;;;;;;5062761;28;20911;-44
2023/02/22 10:56:13;;;;;;;46.38;25.10;;;10.00;99.90;;;;;;5061684;28;20825;-44
2023/02/22 10:58:50;;;;;;;45.07;24.40;;;10.00;99.90;;;;;;5061662;28;20037;-44
2023/02/22 11:01:20;;;;;;;47.15;24.67;;;10.00;99.90;;;;;;5063763;28;20183;-43
2023/02/22 11:03:56;;;;;;;46.03;26.50;;;10.20;99.90;;;;;;5061751;28;20110;-44
2023/02/22 11:06:21;;;;;;;46.65;26.67;;;10.20;99.90;;;;;;5063287;28;20029;-43
2023/02/22 11:08:50;;;;;;;48.50;27.38;;;10.20;99.90;;;;;;5062103;28;20023;-43
2023/02/22 11:11:24;;;;;;;42.72;24.45;;;10.30;99.90;;;;;;5063097;28;20033;-43
2023/02/22 11:13:54;;;;;;;41.40;23.75;;;10.30;99.90;;;;;;5062214;28;20024;-43
2023/02/22 11:16:26;;;;;;;39.78;22.92;;;10.40;99.90;;;;;;5062485;28;20035;-44
2023/02/22 11:19:00;;;;;;;35.67;21.48;;;10.50;99.90;;;;;;5061933;28;20474;-43
2023/02/22 11:21:26;;;;;;;37.03;21.27;;;10.50;99.90;;;;;;5042789;28;20131;-42
2023/02/22 11:24:07;;;;;;;41.40;22.85;;;10.50;99.90;;;;;;5056126;28;20031;-42
2023/02/22 11:26:45;;;;;;;40.35;22.95;;;10.50;99.90;;;;;;5042342;28;20071;-43
2023/02/22 11:29:21;;;;;;;38.75;22.73;;;10.50;99.90;;;;;;5058397;28;20025;-43
2023/02/22 11:31:48;;;;;;;34.88;20.77;;;10.60;99.90;;;;;;5041513;28;20033;-43
2023/02/22 11:34:36;;;;;;;32.10;19.27;;;10.70;99.90;;;;;;5057709;28;20098;-43
2023/02/22 11:37:21;;;;;;;34.03;19.70;;;10.70;99.90;;;;;;5041675;28;20037;-43
2023/02/22 11:40:02;;;;;;;33.70;19.55;;;10.70;99.90;;;;;;5059202;28;20029;-44
2023/02/22 11:42:29;;;;;;;31.60;17.45;;;10.70;99.90;;;;;;5061215;28;20029;-44
2023/02/22 11:45:16;;;;;;;27.83;16.63;;;10.80;99.90;;;;;;5059728;28;20586;-42
2023/02/22 11:47:51;;;;;;;30.77;18.25;;;10.90;99.90;;;;;;5061460;28;20046;-43
2023/02/22 11:50:51;;;;;;;30.02;17.23;;;10.90;99.90;;;;;;5062109;28;20044;-43
2023/02/22 11:53:30;;;;;;;23.50;13.80;;;11.00;99.90;;;;;;5030458;28;20032;-43
2023/02/22 11:56:19;;;;;;;27.35;17.02;;;11.00;99.90;;;;;;5061329;28;20139;-43
2023/02/22 11:58:51;;;;;;;26.75;16.17;;;11.00;99.90;;;;;;5060765;28;20464;-43
2023/02/22 12:01:42;;;;;;;27.15;16.88;;;11.10;99.90;;;;;;5062243;28;20049;-43
2023/02/22 12:04:42;;;;;;;24.58;15.45;;;11.20;99.90;;;;;;5062250;28;20020;-43
2023/02/22 12:07:16;;;;;;;26.65;16.05;;;11.30;99.90;;;;;;5061416;28;20068;-44
2023/02/22 12:10:10;;;;;;;26.50;16.95;;;11.30;99.90;;;;;;5060859;28;20032;-44
2023/02/22 12:12:54;;;;;;;23.80;13.88;;;11.40;99.90;;;;;;5060818;28;20098;-44
2023/02/22 12:15:43;;;;;;;25.95;15.40;;;11.50;99.90;;;;;;5058262;28;20082;-43
2023/02/22 12:18:32;;;;;;;25.52;15.77;;;11.50;99.90;;;;;;5042325;28;20151;-43
2023/02/22 12:21:04;;;;;;;26.15;16.05;;;11.60;99.90;;;;;;5052775;28;20072;-44
2023/02/22 12:23:44;;;;;;;27.88;16.42;;;11.70;99.90;;;;;;5041190;28;20029;-43
2023/02/22 12:26:15;;;;;;;25.38;16.13;;;11.70;99.90;;;;;;5053161;28;20047;-43
2023/02/22 12:28:46;;;;;;;26.85;16.15;;;11.80;99.90;;;;;;5040758;28;20025;-43
2023/02/22 12:31:22;;;;;;;26.50;16.08;;;11.90;99.90;;;;;;5052659;28;20032;-44
2023/02/22 12:34:08;;;;;;;27.90;17.70;;;12.00;99.90;;;;;;5042413;28;20074;-43
2023/02/22 12:36:57;;;;;;;23.58;16.00;;;12.10;99.90;;;;;;5047749;28;20036;-43
2023/02/22 12:39:45;;;;;;;26.13;15.88;;;12.10;99.90;;;;;;5061355;28;20100;-42
2023/02/22 12:42:22;;;;;;;24.70;15.65;;;12.10;99.90;;;;;;5060169;28;20948;-42
2023/02/22 12:44:56;;;;;;;26.60;16.00;;;12.10;99.90;;;;;;5061005;28;20129;-43
2023/02/22 12:47:29;;;;;;;25.42;15.70;;;12.10;99.90;;;;;;5060889;28;20604;-43
2023/02/22 12:50:19;;;;;;;27.02;17.23;;;12.20;99.90;;;;;;5060801;28;20118;-43
2023/02/22 12:52:47;;;;;;;24.58;16.05;;;12.20;99.90;;;;;;5057648;28;20047;-43
2023/02/22 12:55:25;;;;;;;23.30;15.68;;;12.20;99.90;;;;;;5058959;28;20020;-44
2023/02/22 12:57:55;;;;;;;24.92;14.98;;;12.20;99.90;;;;;;5057443;28;20032;-42